Time;durP1;ratioP1;P1;durP2;ratioP2;P2;SDS_P1;SDS_P2;PMS_P1;PMS_P2;Temp;Humidity;BMP_temperature;BMP_pressure;BME280_temperature;BME280_humidity;BME280_pressure;Samples;Min_cycle;Max_cycle;Signal;HPM_P1;HPM_P2
2022/10/03 00:01:49;;;;;;;4.78;1.65;;;;;;;15.55;100.00;98547.66;5012691;28;20030;-60
2022/10/03 00:04:43;;;;;;;4.80;1.80;;;;;;;15.56;100.00;98540.59;4996945;28;20034;-60
2022/10/03 00:07:33;;;;;;;4.20;1.80;;;;;;;15.61;100.00;98546.13;5010453;28;20030;-59
2022/10/03 00:10:22;;;;;;;3.88;1.67;;;;;;;15.32;100.00;98510.22;5011699;28;20116;-60
2022/10/03 00:12:53;;;;;;;4.00;1.63;;;;;;;15.27;100.00;98521.19;4995664;28;20042;-59
2022/10/03 00:15:26;;;;;;;4.28;1.50;;;;;;;15.17;100.00;98518.84;5009736;28;20048;-59
2022/10/03 00:18:01;;;;;;;5.38;1.80;;;;;;;15.34;100.00;98540.47;4998658;28;20147;-59
2022/10/03 00:20:40;;;;;;;4.57;1.85;;;;;;;15.41;100.00;98552.88;5014088;28;20068;-60
2022/10/03 00:23:40;;;;;;;5.93;2.08;;;;;;;15.44;100.00;98557.75;5012125;28;20427;-59
2022/10/03 00:26:32;;;;;;;4.07;1.77;;;;;;;15.39;100.00;98553.03;4995894;28;20042;-59
2022/10/03 00:29:22;;;;;;;4.88;1.80;;;;;;;15.32;100.00;98557.34;5012504;28;20615;-59
2022/10/03 00:32:10;;;;;;;4.10;1.95;;;;;;;15.25;100.00;98543.34;5007509;28;20030;-59
2022/10/03 00:34:52;;;;;;;5.93;2.10;;;;;;;15.26;100.00;98561.50;5011637;28;20030;-59
2022/10/03 00:37:38;;;;;;;3.70;1.58;;;;;;;15.22;100.00;98554.97;5024617;28;20050;-60
2022/10/03 00:40:43;;;;;;;4.82;2.05;;;;;;;14.93;100.00;98513.78;5007092;28;20025;-59
2022/10/03 00:43:40;;;;;;;3.80;1.55;;;;;;;15.19;100.00;98552.72;5002908;28;20042;-59
2022/10/03 00:46:08;;;;;;;5.57;1.90;;;;;;;15.06;100.00;98529.72;5017224;28;20537;-60
2022/10/03 00:49:13;;;;;;;4.60;1.73;;;;;;;15.27;100.00;98550.00;5012781;28;20040;-58
2022/10/03 00:51:55;;;;;;;3.90;1.70;;;;;;;14.98;100.00;98508.84;5012865;28;20081;-59
2022/10/03 00:54:23;;;;;;;5.30;1.70;;;;;;;15.14;100.00;98549.81;5008495;28;20046;-60
2022/10/03 00:57:26;;;;;;;4.90;1.80;;;;;;;15.21;100.00;98557.78;5007784;28;20041;-58
2022/10/03 01:00:23;;;;;;;5.20;1.70;;;;;;;15.12;100.00;98563.06;5017561;28;20481;-59
2022/10/03 01:03:12;;;;;;;4.45;1.65;;;;;;;15.12;100.00;98562.25;5015756;28;20038;-60
2022/10/03 01:05:53;;;;;;;4.57;1.48;;;;;;;15.13;100.00;98558.63;5012860;28;20083;-59
2022/10/03 01:08:24;;;;;;;3.45;1.48;;;;;;;15.06;100.00;98568.19;5003187;28;20056;-59
2022/10/03 01:11:10;;;;;;;4.80;1.70;;;;;;;14.95;100.00;98557.13;5001728;28;20045;-59
2022/10/03 01:14:12;;;;;;;3.95;1.50;;;;;;;14.92;100.00;98561.91;5009816;28;20030;-59
2022/10/03 01:17:04;;;;;;;4.70;1.38;;;;;;;14.96;100.00;98561.38;5008493;28;20033;-60
2022/10/03 01:19:52;;;;;;;3.78;1.35;;;;;;;14.94;100.00;98563.34;5030395;28;20042;-59
2022/10/03 01:22:26;;;;;;;3.25;1.40;;;;;;;14.89;100.00;98557.00;5001452;28;20026;-59
2022/10/03 01:25:19;;;;;;;3.75;1.58;;;;;;;14.91;100.00;98565.50;5015447;28;20037;-60
2022/10/03 01:30:39;;;;;;;4.43;1.40;;;;;;;14.77;98.74;98530.44;5007452;28;20147;-59
2022/10/03 01:33:17;;;;;;;3.67;1.30;;;;;;;14.90;99.34;98569.94;4985095;28;20037;-60
2022/10/03 01:35:57;;;;;;;4.75;1.40;;;;;;;14.95;99.27;98569.41;4994046;28;20060;-59
2022/10/03 01:38:25;;;;;;;3.83;1.25;;;;;;;14.93;99.55;98569.59;5013546;28;20037;-60
2022/10/03 01:41:10;;;;;;;3.85;1.40;;;;;;;14.88;99.36;98555.41;5003751;28;20060;-59
2022/10/03 01:43:40;;;;;;;5.78;1.60;;;;;;;14.94;99.16;98570.41;4982887;28;20426;-59
2022/10/03 01:46:16;;;;;;;5.55;1.30;;;;;;;14.86;99.37;98575.66;4992725;28;20030;-63
2022/10/03 01:49:06;;;;;;;4.70;2.05;;;;;;;14.79;100.00;98568.50;5002350;28;20444;-59
2022/10/03 01:51:48;;;;;;;3.72;1.42;;;;;;;14.95;100.00;98570.22;5002664;28;20033;-59
2022/10/03 01:54:29;;;;;;;4.78;1.35;;;;;;;14.93;100.00;98576.59;5004228;28;20861;-56
2022/10/03 01:57:20;;;;;;;4.18;1.30;;;;;;;14.87;100.00;98590.41;5007585;28;20603;-60
2022/10/03 02:00:07;;;;;;;2.88;1.20;;;;;;;14.57;100.00;98545.72;5024048;28;20045;-59
2022/10/03 02:02:46;;;;;;;3.50;1.25;;;;;;;14.82;99.70;98592.72;4998286;28;20037;-60
2022/10/03 02:05:34;;;;;;;8.63;1.30;;;;;;;14.57;98.04;98520.41;4995612;28;20041;-59
2022/10/03 02:08:21;;;;;;;3.35;1.20;;;;;;;14.86;98.60;98591.38;5014056;28;20353;-60
2022/10/03 02:10:54;;;;;;;3.50;1.20;;;;;;;14.83;97.78;98587.31;5005808;28;20040;-59
2022/10/03 02:13:26;;;;;;;3.47;1.20;;;;;;;14.66;97.51;98557.81;5008791;28;20091;-60
2022/10/03 02:16:10;;;;;;;2.97;1.10;;;;;;;14.93;96.95;98590.53;4990491;28;20029;-59
2022/10/03 02:18:35;;;;;;;4.05;1.30;;;;;;;14.83;96.73;98595.16;5015469;28;20029;-59
2022/10/03 02:21:03;;;;;;;3.83;1.13;;;;;;;14.87;96.52;98593.81;4995761;28;20030;-61
2022/10/03 02:23:31;;;;;;;3.42;1.05;;;;;;;14.84;97.93;98602.03;5003914;28;20500;-60
2022/10/03 02:26:19;;;;;;;3.95;1.02;;;;;;;14.80;99.86;98603.34;5008261;28;20036;-59
2022/10/03 02:29:22;;;;;;;2.45;1.00;;;;;;;14.78;99.01;98616.63;5028128;28;20116;-59
2022/10/03 02:32:26;;;;;;;3.72;1.10;;;;;;;14.90;97.83;98613.63;5002398;28;20030;-59
2022/10/03 02:35:08;;;;;;;2.78;1.00;;;;;;;14.96;96.99;98612.94;4993248;28;20497;-59
2022/10/03 02:37:56;;;;;;;3.53;1.35;;;;;;;14.67;96.95;98571.69;5003079;28;20178;-59
2022/10/03 02:40:49;;;;;;;3.65;1.10;;;;;;;14.88;97.15;98607.75;5002999;28;20042;-60
2022/10/03 02:43:41;;;;;;;2.92;1.10;;;;;;;14.93;97.09;98600.16;5002552;28;20041;-60
2022/10/03 02:46:18;;;;;;;3.33;1.10;;;;;;;14.90;96.90;98601.34;4995095;28;20030;-59
2022/10/03 02:49:03;;;;;;;3.60;1.20;;;;;;;14.84;97.24;98612.50;4986086;28;20036;-58
2022/10/03 02:52:17;;;;;;;4.53;1.05;;;;;;;14.86;95.31;98604.47;5018055;28;20668;-60
2022/10/03 02:55:03;;;;;;;2.75;0.98;;;;;;;14.86;96.07;98615.78;5031412;28;20049;-60
2022/10/03 02:57:38;;;;;;;2.88;1.00;;;;;;;14.77;97.01;98617.59;4997724;28;20036;-59
2022/10/03 03:00:08;;;;;;;3.97;1.10;;;;;;;14.87;96.26;98617.38;5008406;28;20029;-59
2022/10/03 03:02:53;;;;;;;3.72;0.90;;;;;;;14.75;94.83;98619.59;5005661;28;20448;-59
2022/10/03 03:05:24;;;;;;;2.80;0.90;;;;;;;14.78;93.95;98623.66;5015552;28;20033;-59
2022/10/03 03:08:32;;;;;;;2.42;0.88;;;;;;;14.74;92.78;98617.94;5010547;28;20729;-60
2022/10/03 03:11:26;;;;;;;2.92;0.93;;;;;;;14.76;94.13;98631.66;4993469;28;20046;-59
2022/10/03 03:13:54;;;;;;;2.65;0.90;;;;;;;14.74;94.53;98641.50;5018891;28;20045;-60
2022/10/03 03:16:26;;;;;;;2.67;0.90;;;;;;;14.79;94.29;98635.75;5007782;28;20037;-59
2022/10/03 03:19:30;;;;;;;3.42;0.98;;;;;;;14.67;94.74;98637.94;5005686;28;20177;-60
2022/10/03 03:21:58;;;;;;;2.78;0.90;;;;;;;14.71;95.48;98639.25;5001461;28;20038;-59
2022/10/03 03:24:33;;;;;;;2.92;1.13;;;;;;;14.60;96.90;98645.66;5004468;28;20038;-60
2022/10/03 03:27:04;;;;;;;3.03;0.90;;;;;;;14.65;96.59;98647.75;5000086;28;20590;-59
2022/10/03 03:29:44;;;;;;;3.42;0.98;;;;;;;14.61;96.51;98654.31;5013080;28;20080;-59
2022/10/03 03:32:19;;;;;;;5.20;1.48;;;;;;;14.58;95.62;98649.41;5007094;28;20029;-59
2022/10/03 03:35:03;;;;;;;4.03;1.10;;;;;;;14.65;95.18;98652.97;5016524;28;20029;-59
2022/10/03 03:37:41;;;;;;;3.20;1.10;;;;;;;14.67;95.10;98658.84;5012419;28;20638;-59
2022/10/03 03:40:13;;;;;;;3.30;1.00;;;;;;;14.72;94.59;98653.94;5003535;28;20487;-58
2022/10/03 03:43:08;;;;;;;3.85;0.80;;;;;;;14.73;93.64;98657.38;5013082;28;20211;-59
2022/10/03 03:45:53;;;;;;;3.67;1.15;;;;;;;14.74;94.14;98648.53;5007188;28;20045;-59
2022/10/03 03:48:43;;;;;;;2.58;0.75;;;;;;;14.72;93.21;98645.28;4999166;28;20030;-58
2022/10/03 03:51:21;;;;;;;3.75;1.10;;;;;;;14.66;92.07;98645.94;5014894;28;20037;-59
2022/10/03 03:53:55;;;;;;;4.18;1.00;;;;;;;14.42;90.82;98611.84;5003944;28;20041;-59
2022/10/03 03:56:47;;;;;;;3.45;0.90;;;;;;;14.59;91.79;98644.00;5019414;28;20061;-59
2022/10/03 03:59:24;;;;;;;3.30;1.00;;;;;;;14.65;92.81;98660.03;4998676;28;20054;-59
2022/10/03 04:01:55;;;;;;;2.83;1.10;;;;;;;14.42;93.03;98600.56;4997623;28;20507;-59
2022/10/03 04:04:33;;;;;;;3.40;0.90;;;;;;;14.60;94.00;98660.53;5000473;28;20144;-60
2022/10/03 04:07:20;;;;;;;3.55;1.00;;;;;;;14.56;93.37;98661.81;5009090;28;20788;-58
2022/10/03 04:10:37;;;;;;;2.88;0.90;;;;;;;14.63;93.45;98654.16;5038367;28;20036;-59
2022/10/03 04:13:12;;;;;;;2.28;0.82;;;;;;;14.58;94.89;98665.94;4985369;28;20635;-59
2022/10/03 04:16:06;;;;;;;4.38;1.00;;;;;;;14.58;95.22;98660.72;5010862;28;20258;-58
2022/10/03 04:18:59;;;;;;;2.85;0.80;;;;;;;14.46;96.14;98663.84;5013525;28;20025;-60
2022/10/03 04:21:49;;;;;;;2.72;0.93;;;;;;;14.47;96.15;98663.63;5017038;28;20042;-59
2022/10/03 04:24:39;;;;;;;2.40;0.77;;;;;;;14.34;96.19;98647.66;5023304;28;20073;-59
2022/10/03 04:27:32;;;;;;;2.55;0.90;;;;;;;14.43;96.28;98657.13;5012056;28;20065;-59
2022/10/03 04:30:07;;;;;;;2.83;1.00;;;;;;;14.43;97.96;98654.50;5015375;28;20033;-58
2022/10/03 04:32:48;;;;;;;3.25;1.10;;;;;;;14.32;98.02;98655.69;5005715;28;20030;-60
2022/10/03 04:35:20;;;;;;;2.50;0.88;;;;;;;14.44;98.09;98664.00;5007863;28;20042;-59
2022/10/03 04:37:55;;;;;;;3.80;1.20;;;;;;;14.38;98.02;98652.41;5009189;28;20025;-59
2022/10/03 04:40:40;;;;;;;4.75;1.00;;;;;;;14.09;97.86;98610.28;5005522;28;20029;-59
2022/10/03 04:43:33;;;;;;;2.90;1.00;;;;;;;14.26;97.81;98645.09;4991085;28;20444;-59
2022/10/03 04:46:21;;;;;;;2.50;0.80;;;;;;;14.32;98.08;98654.88;4996093;28;20409;-59
2022/10/03 04:49:10;;;;;;;2.00;0.80;;;;;;;14.27;98.28;98652.75;5011480;28;20037;-60
2022/10/03 04:51:36;;;;;;;2.38;0.85;;;;;;;14.08;97.93;98622.56;4994292;28;20023;-59
2022/10/03 04:54:29;;;;;;;4.97;0.90;;;;;;;14.31;97.55;98661.06;5001436;28;20623;-59
2022/10/03 04:57:19;;;;;;;3.72;0.98;;;;;;;14.29;98.23;98670.88;5005399;28;20536;-59
2022/10/03 04:59:51;;;;;;;2.83;1.05;;;;;;;14.41;96.49;98665.13;5003924;28;20064;-58
2022/10/03 05:02:32;;;;;;;3.83;0.95;;;;;;;14.20;96.56;98628.25;5000925;28;20045;-59
2022/10/03 05:05:33;;;;;;;2.22;0.80;;;;;;;14.31;97.43;98663.69;5006342;28;20091;-59
2022/10/03 05:08:22;;;;;;;2.75;0.80;;;;;;;14.31;98.77;98666.31;4993595;28;20080;-58
2022/10/03 05:11:05;;;;;;;5.38;1.02;;;;;;;14.31;99.49;98666.31;5001254;28;20084;-60
2022/10/03 05:13:40;;;;;;;3.00;1.10;;;;;;;14.25;98.53;98667.78;4999558;28;20124;-59
2022/10/03 05:16:32;;;;;;;4.53;0.85;;;;;;;14.31;98.10;98666.31;5008833;28;20026;-58
2022/10/03 05:19:03;;;;;;;2.67;0.70;;;;;;;14.27;99.46;98652.75;5014515;28;20087;-59
2022/10/03 05:21:47;;;;;;;3.03;0.90;;;;;;;14.38;99.35;98662.03;5001426;28;20043;-59
2022/10/03 05:24:25;;;;;;;3.78;0.90;;;;;;;14.30;99.38;98667.31;4996674;28;20042;-60
2022/10/03 05:27:12;;;;;;;2.58;0.93;;;;;;;14.31;98.34;98680.22;4994703;28;20032;-58
2022/10/03 05:30:00;;;;;;;2.17;0.90;;;;;;;14.32;98.24;98681.84;4999330;28;20044;-60
2022/10/03 05:32:32;;;;;;;3.28;0.90;;;;;;;14.26;98.06;98677.28;5006000;28;20030;-59
2022/10/03 05:35:28;;;;;;;2.33;0.73;;;;;;;14.29;97.94;98690.03;4998529;28;20040;-59
2022/10/03 05:37:54;;;;;;;2.13;0.70;;;;;;;14.23;97.85;98696.72;4991138;28;20030;-59
2022/10/03 05:40:28;;;;;;;2.63;0.80;;;;;;;14.18;96.89;98692.97;5000752;28;20048;-59
2022/10/03 05:43:02;;;;;;;1.92;0.75;;;;;;;14.20;96.16;98689.22;5004720;28;20139;-59
2022/10/03 05:45:36;;;;;;;3.30;0.90;;;;;;;14.12;96.18;98683.19;5000005;28;20037;-59
2022/10/03 05:48:17;;;;;;;2.38;0.77;;;;;;;14.18;95.10;98695.59;4978273;28;20034;-59
2022/10/03 05:50:56;;;;;;;2.00;0.70;;;;;;;14.06;94.34;98670.78;4992486;28;20034;-59
2022/10/03 05:53:53;;;;;;;1.85;0.70;;;;;;;14.40;93.58;98713.22;4997596;28;20033;-60
2022/10/03 05:56:36;;;;;;;4.03;0.80;;;;;;;14.34;94.00;98706.00;5004995;28;20041;-59
2022/10/03 05:59:20;;;;;;;2.28;0.77;;;;;;;14.30;95.13;98712.56;4995464;28;20112;-60
2022/10/03 06:02:14;;;;;;;3.97;0.88;;;;;;;14.23;96.60;98714.22;5004655;28;20037;-59
2022/10/03 06:04:39;;;;;;;4.72;0.90;;;;;;;14.32;95.35;98726.28;5004883;28;20030;-59
2022/10/03 06:07:39;;;;;;;4.55;0.95;;;;;;;14.39;93.71;98714.19;4994425;28;20052;-60
2022/10/03 06:10:07;;;;;;;1.60;0.60;;;;;;;14.40;94.30;98721.06;5008968;28;20045;-59
2022/10/03 06:12:57;;;;;;;2.58;0.82;;;;;;;14.40;95.54;98720.22;4949418;28;20041;-59
2022/10/03 06:16:00;;;;;;;2.63;0.80;;;;;;;14.30;94.99;98717.00;5016091;28;20032;-59
2022/10/03 06:18:37;;;;;;;2.78;0.70;;;;;;;14.33;93.61;98704.41;5001588;28;20239;-59
2022/10/03 06:21:39;;;;;;;4.22;0.63;;;;;;;14.37;94.34;98716.16;4995707;28;20033;-59
2022/10/03 06:24:41;;;;;;;2.50;0.80;;;;;;;14.46;95.09;98710.94;5000962;28;20054;-59
2022/10/03 06:27:28;;;;;;;2.15;0.77;;;;;;;14.38;95.45;98725.66;4995867;28;20080;-60
2022/10/03 06:30:17;;;;;;;2.45;0.77;;;;;;;14.34;93.52;98732.19;5006424;28;20104;-58
2022/10/03 06:33:20;;;;;;;2.40;0.70;;;;;;;14.38;93.56;98727.44;4944155;28;21721;-59
2022/10/03 06:35:58;;;;;;;4.22;1.00;;;;;;;14.39;93.45;98729.88;5015729;28;20014;-59
2022/10/03 06:39:01;;;;;;;3.92;0.77;;;;;;;14.35;93.42;98728.59;5009453;28;20125;-59
2022/10/03 06:41:48;;;;;;;2.83;0.98;;;;;;;14.39;91.10;98731.69;5014131;28;20025;-59
2022/10/03 06:44:28;;;;;;;1.92;0.60;;;;;;;14.42;90.98;98736.59;5012828;28;20042;-59
2022/10/03 06:47:17;;;;;;;2.90;0.70;;;;;;;14.42;91.43;98744.44;5006988;28;20037;-59
2022/10/03 06:49:51;;;;;;;1.98;0.70;;;;;;;14.31;91.14;98731.69;5005957;28;20030;-60
2022/10/03 06:52:48;;;;;;;3.03;0.82;;;;;;;14.34;90.20;98732.19;5010437;28;20038;-60
2022/10/03 06:55:32;;;;;;;1.95;0.70;;;;;;;14.14;91.35;98691.66;4939848;28;20040;-59
2022/10/03 06:58:22;;;;;;;2.72;0.80;;;;;;;14.35;94.50;98740.84;5009030;28;21357;-59
2022/10/03 07:01:27;;;;;;;2.75;0.95;;;;;;;14.23;96.54;98732.53;5007882;28;20030;-59
2022/10/03 07:04:17;;;;;;;3.40;0.90;;;;;;;14.23;98.25;98737.75;5000260;28;20434;-60
2022/10/03 07:06:52;;;;;;;3.28;0.80;;;;;;;14.14;98.56;98739.53;5010161;28;20030;-60
2022/10/03 07:09:45;;;;;;;3.45;0.88;;;;;;;14.21;98.33;98748.38;5013410;28;20026;-59
2022/10/03 07:12:39;;;;;;;4.57;1.00;;;;;;;14.25;98.05;98743.63;5000268;28;20034;-60
2022/10/03 07:15:04;;;;;;;4.95;1.05;;;;;;;14.29;98.62;98751.97;5001659;28;20112;-60
2022/10/03 07:18:12;;;;;;;3.38;1.15;;;;;;;14.32;97.60;98744.59;5010319;28;20108;-59
2022/10/03 07:20:43;;;;;;;4.15;1.30;;;;;;;14.22;98.24;98749.22;5004167;28;20052;-58
2022/10/03 07:23:31;;;;;;;6.50;1.38;;;;;;;14.20;98.45;98751.97;5018762;28;20042;-59
2022/10/03 07:26:33;;;;;;;6.10;1.35;;;;;;;14.16;98.76;98757.69;5013233;28;20053;-59
2022/10/03 07:29:20;;;;;;;4.18;1.10;;;;;;;14.15;98.71;98756.06;4995147;28;20030;-60
2022/10/03 07:32:10;;;;;;;3.33;1.00;;;;;;;14.19;100.00;98763.41;4985435;28;20134;-59
2022/10/03 07:34:54;;;;;;;4.55;1.02;;;;;;;13.74;100.00;98722.88;4954109;28;20076;-61
2022/10/03 07:40:39;;;;;;;3.45;0.90;;;;;;;14.01;100.00;98766.19;5005329;28;20056;-59
2022/10/03 07:43:14;;;;;;;3.45;1.30;;;;;;;14.00;100.00;98766.34;5001111;28;20171;-60
2022/10/03 07:45:59;;;;;;;4.22;1.13;;;;;;;13.99;100.00;98781.22;5010081;28;20105;-60
2022/10/03 07:48:46;;;;;;;3.50;1.00;;;;;;;14.07;100.00;98782.22;4994878;28;20536;-59
2022/10/03 07:51:23;;;;;;;3.67;1.10;;;;;;;13.91;100.00;98743.78;5018146;28;20041;-59
2022/10/03 07:53:51;;;;;;;3.00;0.93;;;;;;;14.08;100.00;98771.59;5007289;28;20089;-59
2022/10/03 07:56:38;;;;;;;5.30;1.65;;;;;;;13.97;100.00;98788.41;4950979;28;20597;-60
2022/10/03 07:59:31;;;;;;;3.85;1.20;;;;;;;13.95;100.00;98786.94;5004496;28;20104;-60
2022/10/03 08:02:32;;;;;;;4.60;1.25;;;;;;;13.69;100.00;98740.84;5013825;28;20046;-59
2022/10/03 08:05:20;;;;;;;14.25;2.20;;;;;;;13.83;100.00;98771.56;5006755;28;20033;-59
2022/10/03 08:07:57;;;;;;;11.50;1.77;;;;;;;13.71;100.00;98751.97;5006009;28;20036;-59
2022/10/03 08:11:16;;;;;;;6.22;1.42;;;;;;;14.00;100.00;98803.78;5005074;28;20018;-59
2022/10/03 08:13:53;;;;;;;;;;;;;;;13.90;100.00;98803.09;4989392;28;20084;-59
2022/10/03 08:16:28;;;;;;;6.03;1.75;;;;;;;13.72;100.00;98778.91;4991621;28;20360;-59
2022/10/03 08:19:32;;;;;;;4.70;1.38;;;;;;;13.81;100.00;98812.72;5012627;28;20033;-59
2022/10/03 08:22:18;;;;;;;5.30;1.38;;;;;;;13.80;100.00;98816.31;4993311;28;20033;-59
2022/10/03 08:25:11;;;;;;;3.65;1.40;;;;;;;13.89;100.00;98811.09;4997958;28;20034;-58
2022/10/03 08:27:36;;;;;;;4.05;1.13;;;;;;;13.91;100.00;98807.38;5008670;28;20536;-59
2022/10/03 08:30:17;;;;;;;5.55;1.33;;;;;;;13.82;100.00;98798.69;5005359;28;20030;-59
2022/10/03 08:32:45;;;;;;;4.70;1.30;;;;;;;13.64;100.00;98764.03;4992175;28;20584;-60
2022/10/03 08:35:43;;;;;;;7.43;1.33;;;;;;;13.97;100.00;98803.28;5000274;28;20396;-59
2022/10/03 08:38:46;;;;;;;5.10;1.45;;;;;;;13.97;100.00;98792.81;4995666;28;20042;-60
2022/10/03 08:41:18;;;;;;;5.80;1.40;;;;;;;13.89;100.00;98790.19;5006707;28;20103;-59
2022/10/03 08:44:21;;;;;;;4.20;1.15;;;;;;;13.86;100.00;98788.72;4987801;28;20038;-59
2022/10/03 08:47:08;;;;;;;4.97;1.13;;;;;;;13.81;100.00;98794.44;5036589;28;20072;-59
2022/10/03 08:49:56;;;;;;;3.83;1.42;;;;;;;13.76;100.00;98801.13;5001391;28;20033;-59
2022/10/03 08:52:28;;;;;;;3.78;1.30;;;;;;;13.76;100.00;98781.06;5001865;28;20076;-60
2022/10/03 08:55:18;;;;;;;4.22;1.58;;;;;;;13.96;100.00;98792.03;5005951;28;20022;-60
2022/10/03 08:57:47;;;;;;;4.80;2.03;;;;;;;13.68;100.00;98767.16;4984662;28;20038;-61
2022/10/03 09:00:17;;;;;;;5.22;2.13;;;;;;;13.95;100.00;98789.56;4935348;28;20034;-59
2022/10/03 09:03:25;;;;;;;5.70;2.03;;;;;;;13.99;99.68;98781.22;4995005;28;20034;-60
2022/10/03 09:06:12;;;;;;;5.32;1.80;;;;;;;13.95;100.00;98784.34;4996126;28;20050;-59
2022/10/03 09:08:46;;;;;;;4.47;1.40;;;;;;;14.08;98.74;98784.66;5005961;28;20021;-59
2022/10/03 09:11:41;;;;;;;6.78;1.40;;;;;;;14.20;97.70;98782.53;5004822;28;20033;-59
2022/10/03 09:14:26;;;;;;;3.45;0.95;;;;;;;14.29;96.86;98778.13;4986100;28;20252;-60
2022/10/03 09:17:13;;;;;;;3.72;1.00;;;;;;;14.41;91.84;98748.03;4988872;28;20164;-59
2022/10/03 09:20:37;;;;;;;1.90;0.57;;;;;;;15.13;86.66;98776.00;4898843;28;20038;-59
2022/10/03 09:23:19;;;;;;;2.20;0.70;;;;;;;15.68;84.83;98771.63;4991417;28;20092;-59
2022/10/03 09:26:06;;;;;;;1.80;0.60;;;;;;;15.87;87.14;98762.53;4992896;28;20096;-59
2022/10/03 09:28:53;;;;;;;4.93;1.00;;;;;;;15.98;82.11;98771.81;4995949;28;20037;-59
2022/10/03 09:31:56;;;;;;;4.15;0.80;;;;;;;16.12;79.69;98760.53;4999047;28;20026;-59
2022/10/03 09:34:38;;;;;;;1.98;0.55;;;;;;;16.33;79.27;98768.53;4978980;28;20092;-59
2022/10/03 09:37:15;;;;;;;3.08;0.90;;;;;;;16.44;76.81;98764.66;4994136;28;20117;-59
2022/10/03 09:40:02;;;;;;;2.65;0.80;;;;;;;16.60;76.91;98763.69;4970913;28;20041;-60
2022/10/03 09:43:03;;;;;;;3.60;1.25;;;;;;;16.72;75.39;98756.22;4988269;28;20030;-60
2022/10/03 09:46:06;;;;;;;4.10;0.88;;;;;;;16.91;75.64;98750.44;4991684;28;20092;-60
2022/10/03 09:48:38;;;;;;;1.30;0.47;;;;;;;16.93;75.11;98754.69;4981044;28;20033;-59
2022/10/03 09:51:15;;;;;;;1.83;0.60;;;;;;;16.44;75.33;98682.50;4998054;28;20038;-60
2022/10/03 09:54:27;;;;;;;3.80;0.80;;;;;;;16.75;76.07;98747.16;4994987;28;20477;-59
2022/10/03 09:57:20;;;;;;;2.20;0.60;;;;;;;17.06;73.35;98747.78;4994309;28;20172;-59
2022/10/03 10:00:04;;;;;;;1.88;0.55;;;;;;;17.28;73.06;98748.66;5005895;28;20559;-59
2022/10/03 10:03:06;;;;;;;2.67;0.80;;;;;;;17.46;70.59;98732.47;5009996;28;20071;-60
2022/10/03 10:06:17;;;;;;;1.58;0.50;;;;;;;17.66;70.13;98735.31;4999611;28;20030;-60
2022/10/03 10:09:04;;;;;;;2.90;0.65;;;;;;;17.75;67.79;98725.50;5007889;28;20068;-59
2022/10/03 10:11:32;;;;;;;2.95;0.60;;;;;;;17.99;69.96;98723.50;5019141;28;20140;-60
2022/10/03 10:14:15;;;;;;;2.55;0.60;;;;;;;18.05;69.34;98712.22;5008500;28;20034;-61
2022/10/03 10:16:56;;;;;;;1.45;0.55;;;;;;;18.20;67.67;98725.31;5013890;28;20032;-60
2022/10/03 10:19:43;;;;;;;1.83;0.57;;;;;;;18.23;69.07;98723.09;5001943;28;20158;-60
2022/10/03 10:22:40;;;;;;;1.92;0.60;;;;;;;18.29;71.37;98712.78;4998246;28;20029;-59
2022/10/03 10:25:30;;;;;;;2.78;0.90;;;;;;;18.38;71.96;98709.00;4988837;28;20034;-60
2022/10/03 10:27:58;;;;;;;2.25;0.68;;;;;;;18.47;74.54;98705.22;4998215;28;20074;-59
2022/10/03 10:30:50;;;;;;;3.08;0.70;;;;;;;18.37;75.48;98696.88;4998390;28;20042;-60
2022/10/03 10:33:27;;;;;;;2.78;0.70;;;;;;;18.40;77.03;98699.13;5001546;28;20026;-59
2022/10/03 10:35:59;;;;;;;2.60;0.70;;;;;;;18.40;75.05;98692.03;4998383;28;20036;-59
2022/10/03 10:38:49;;;;;;;2.83;0.90;;;;;;;18.54;71.48;98700.81;5007742;28;20033;-60
2022/10/03 10:41:23;;;;;;;3.85;0.80;;;;;;;18.52;69.87;98699.38;4985851;28;20413;-59
2022/10/03 10:44:17;;;;;;;2.95;1.00;;;;;;;18.70;68.39;98690.97;5004633;28;20117;-60
2022/10/03 10:47:01;;;;;;;3.72;0.88;;;;;;;18.73;67.76;98695.88;5010297;28;20099;-59
2022/10/03 10:49:50;;;;;;;2.03;0.80;;;;;;;18.66;67.17;98663.41;4997834;28;20035;-60
2022/10/03 10:52:34;;;;;;;2.25;0.80;;;;;;;18.86;67.61;98688.03;4997450;28;20030;-60
2022/10/03 10:55:21;;;;;;;2.83;0.73;;;;;;;18.92;68.02;98692.50;5010135;28;20046;-60
2022/10/03 10:58:05;;;;;;;2.00;0.70;;;;;;;18.97;67.86;98679.56;5001055;28;20037;-59
2022/10/03 11:01:02;;;;;;;3.17;0.80;;;;;;;19.09;67.47;98671.09;4989384;28;20442;-59
2022/10/03 11:03:52;;;;;;;6.70;0.90;;;;;;;19.23;67.91;98667.47;4989541;28;21294;-61
2022/10/03 11:06:59;;;;;;;3.10;1.00;;;;;;;19.31;66.32;98667.31;5009442;28;20030;-60
2022/10/03 11:09:24;;;;;;;3.25;1.00;;;;;;;19.09;67.09;98631.56;5002106;28;20112;-59
2022/10/03 11:12:43;;;;;;;2.25;0.77;;;;;;;19.23;66.80;98635.06;4996226;28;20033;-60
2022/10/03 11:15:46;;;;;;;4.50;1.00;;;;;;;19.37;67.40;98661.22;4992473;28;20037;-61
2022/10/03 11:18:30;;;;;;;3.20;1.00;;;;;;;19.33;67.88;98662.66;4995761;28;20030;-59
2022/10/03 11:21:13;;;;;;;4.03;1.10;;;;;;;19.49;68.11;98660.63;4997661;28;20033;-60
2022/10/03 11:24:19;;;;;;;5.20;1.23;;;;;;;19.58;67.35;98657.59;5001209;28;20080;-59
2022/10/03 11:27:12;;;;;;;4.97;1.10;;;;;;;19.61;67.49;98652.94;5003185;28;20033;-59
2022/10/03 11:30:05;;;;;;;6.30;1.25;;;;;;;19.56;66.23;98614.00;5009887;28;20099;-59
2022/10/03 11:33:09;;;;;;;3.95;1.00;;;;;;;19.92;66.79;98653.19;4997048;28;20761;-59
2022/10/03 11:36:20;;;;;;;4.82;1.10;;;;;;;19.92;67.37;98644.47;5005470;28;20049;-60
2022/10/03 11:38:46;;;;;;;3.75;1.20;;;;;;;20.17;67.36;98649.91;4999310;28;20113;-59
2022/10/03 11:41:20;;;;;;;5.82;1.35;;;;;;;20.11;67.61;98650.72;5012743;28;20519;-59
2022/10/03 11:44:19;;;;;;;2.90;1.15;;;;;;;20.20;66.68;98653.97;5009865;28;20112;-59
2022/10/03 11:46:54;;;;;;;;;;;;;;;20.16;66.82;98643.81;5025249;28;20461;-59
2022/10/03 11:49:22;;;;;;;6.28;1.40;;;;;;;20.32;67.30;98641.75;4995954;28;19917;-61
2022/10/03 11:52:10;;;;;;;5.18;1.63;;;;;;;20.13;67.44;98606.44;4998302;28;20048;-59
2022/10/03 11:54:42;;;;;;;4.10;1.48;;;;;;;20.31;68.33;98633.00;5005067;28;20480;-59
2022/10/03 11:57:12;;;;;;;6.93;1.63;;;;;;;20.48;68.44;98630.75;5000502;28;20052;-59
2022/10/03 11:59:58;;;;;;;4.47;1.60;;;;;;;20.51;67.90;98640.88;5010582;28;20063;-59
2022/10/03 12:02:29;;;;;;;5.72;1.75;;;;;;;20.55;67.20;98634.19;5021048;28;20087;-58
2022/10/03 12:05:10;;;;;;;6.45;1.83;;;;;;;20.59;67.17;98631.09;5005072;28;20084;-59
2022/10/03 12:10:29;;;;;;;5.55;2.03;;;;;;;20.64;68.02;98636.59;4999094;28;20081;-60
2022/10/03 12:12:55;;;;;;;5.60;2.50;;;;;;;20.73;68.97;98619.50;4998259;28;20080;-60
2022/10/03 12:15:38;;;;;;;6.28;2.05;;;;;;;20.80;69.49;98635.31;5017379;28;20049;-59
2022/10/03 12:18:06;;;;;;;4.82;2.00;;;;;;;20.58;68.83;98566.91;5007224;28;20038;-59
2022/10/03 12:20:51;;;;;;;6.15;2.20;;;;;;;20.97;68.84;98619.78;5002264;28;20042;-60
2022/10/03 12:23:22;;;;;;;7.00;2.42;;;;;;;20.75;69.88;98588.38;4995584;28;20030;-59
2022/10/03 12:25:48;;;;;;;5.43;2.10;;;;;;;21.02;69.71;98607.56;5001372;28;20508;-59
2022/10/03 12:28:21;;;;;;;4.80;2.10;;;;;;;21.19;68.06;98618.44;4992737;28;20049;-59
2022/10/03 12:31:01;;;;;;;7.40;2.47;;;;;;;20.96;67.45;98552.09;4996601;28;20109;-59
2022/10/03 12:33:32;;;;;;;;;;;;;;;21.34;68.23;98615.50;5021094;28;20049;-59
2022/10/03 13:29:42;;;;;;;6.95;2.55;;;;;;;22.00;65.22;98587.69;5040455;28;20397;-58
2022/10/03 13:32:16;;;;;;;6.47;2.50;;;;;;;22.09;64.59;98585.56;5063801;28;20042;-59
2022/10/03 13:38:07;;;;;;;8.05;3.10;;;;;;;22.05;63.61;98557.88;5038423;28;20029;-58
2022/10/03 13:40:40;;;;;;;7.85;2.88;;;;;;;22.30;62.74;98584.34;5034943;28;20037;-58
2022/10/03 13:43:12;;;;;;;7.10;2.70;;;;;;;22.31;64.21;98572.72;5070314;28;20051;-58
2022/10/03 13:45:43;;;;;;;6.70;3.20;;;;;;;22.42;63.01;98582.56;5061606;28;20029;-57
2022/10/03 13:48:15;;;;;;;7.55;2.60;;;;;;;22.40;63.42;98579.34;5062447;28;20096;-59
2022/10/03 13:50:54;;;;;;;8.35;3.00;;;;;;;22.47;62.76;98571.31;5037183;28;20032;-58
2022/10/03 13:53:28;;;;;;;9.13;2.88;;;;;;;22.36;63.46;98566.75;5037775;28;20025;-59
2022/10/03 13:56:00;;;;;;;8.80;3.05;;;;;;;22.41;63.07;98575.63;5038110;28;20830;-56
2022/10/03 13:58:56;;;;;;;6.50;2.85;;;;;;;22.40;63.60;98567.94;5033446;28;20033;-58